Nearby METAR Reports

 

KCRE - North Myrtle Beach, South Carolina, USA
Distance from station: WSW 14mi, 23km
Updated: 12/13/2017 10:53am
Clear
Clear
 Wind from varies
Wind: varies 7 mph , 11 km/h
Temperature: 43°F , 6°C
Wind Chill: 39°F , 4°C
Dew Point: 12°F , -11°C
Humidity: 29%
Barometer: 30.05 inHg , 1017.6 hPa
Clouds: Clear
Visibility: 10 miles , 16 km
2017/12/13 15:53 KCRE 131553Z VRB06KT 10SM CLR 06/M11 A3005 RMK AO1 SLP176 T00561111
KSUT - Southport, North Carolina, USA
Distance from station: E 24mi, 38km
Updated: 12/13/2017 11:25am
Clear
Clear
 Wind from WNW
Wind: WNW 13 mph , 20 km/h, Gust: 18 mph , 30 km/h
Temperature: 43°F , 6°C
Wind Chill: 36°F , 2°C
Dew Point: 9°F , -13°C
Humidity: 24%
Barometer: 30.02 inHg , 1016.6 hPa
Clouds: Clear
Visibility: 10 miles , 16 km
2017/12/13 16:25 KSUT 131625Z AUTO 30011G16KT 10SM CLR 06/M13 A3002 RMK AO2 T00581126
KCPC - Whiteville, North Carolina, USA
Distance from station: NNW 28mi, 46km
Updated: 12/13/2017 11:25am
Clear
Clear
 Wind from WSW
Wind: WSW 8 mph , 13 km/h
Temperature: 41°F , 5°C
Wind Chill: 36°F , 2°C
Dew Point: 10°F , -12°C
Humidity: 28%
Barometer: 30.02 inHg , 1016.6 hPa
Clouds: Clear
Visibility: 10 miles , 16 km
2017/12/13 16:25 KCPC 131625Z AUTO 24007KT 10SM CLR 05/M12 A3002 RMK AO2 T00501119
 
KILM - Wilmington, North Carolina, USA
Distance from station: NE 42mi, 67km
Updated: 12/13/2017 10:53am
Clear
Clear
 Wind from WNW
Wind: WNW 15 mph , 24 km/h, Gust: 23 mph , 37 km/h
Temperature: 43°F , 6°C
Wind Chill: 36°F , 2°C
Dew Point: 10°F , -12°C
Humidity: 26%
Barometer: 30.02 inHg , 1016.6 hPa
Clouds: Clear
Visibility: 10 miles , 16 km
2017/12/13 15:53 KILM 131553Z AUTO 29013G20KT 10SM CLR 06/M12 A3002 RMK AO2 SLP166 T00561117
KLBT - Lumberton, North Carolina, USA
Distance from station: NW 57mi, 92km
Updated: 12/13/2017 10:54am
Clear
Clear
 Wind from WNW
Wind: WNW 9 mph , 15 km/h
Temperature: 39°F , 4°C
Wind Chill: 33°F , 1°C
Dew Point: 10°F , -12°C
Humidity: 30%
Barometer: 30.03 inHg , 1016.9 hPa
Clouds: Clear
Visibility: 10 miles , 16 km
2017/12/13 15:54 KLBT 131554Z AUTO 29008KT 260V330 10SM CLR 04/M12 A3003 RMK AO2 SLP169 T00441122
KGGE - Georgetown, South Carolina, USA
Distance from station: SW 63mi, 101km
Updated: 12/13/2017 11:35am
Clear
Clear
 Wind from W
Wind: W 6 mph , 9 km/h
Temperature: 43°F , 6°C
Wind Chill: 39°F , 4°C
Dew Point: 12°F , -11°C
Humidity: 29%
Barometer: 30.06 inHg , 1017.9 hPa
Clouds: Clear
Visibility: 10 miles , 16 km
2017/12/13 16:35 KGGE 131635Z AUTO 28005KT 10SM CLR 06/M11 A3006 RMK AO2
 
KFLO - Florence, South Carolina, USA
Distance from station: WNW 73mi, 118km
Updated: 12/13/2017 10:53am
Clear
Clear
 
Temperature: 39°F , 4°C
Dew Point: 9°F , -13°C
Humidity: 28%
Barometer: 30.06 inHg , 1017.9 hPa
Clouds: Clear
Visibility: 10 miles , 16 km
2017/12/13 15:53 KFLO 131553Z 10SM CLR 04/M13 A3006 RMK AO2 SLP177 T00391128
KCTZ - Clinton, North Carolina, USA
Distance from station: N 74mi, 119km
Updated: 12/13/2017 11:25am
Clear
Clear
 Wind from W
Wind: W 13 mph , 20 km/h, Gust: 18 mph , 30 km/h
Temperature: 39°F , 4°C
Wind Chill: 31°F , -1°C
Dew Point: 9°F , -13°C
Humidity: 28%
Barometer: 30.01 inHg , 1016.3 hPa
Clouds: Clear
Visibility: 10 miles , 16 km
2017/12/13 16:25 KCTZ 131625Z AUTO 27011G16KT 10SM CLR 04/M13 A3001 RMK AO2 T00381130
KFAY - Fayetteville, North Carolina, USA
Distance from station: NNW 77mi, 124km
Updated: 12/13/2017 10:53am
Clear
Clear
 Wind from varies
Wind: varies 6 mph , 9 km/h
Temperature: 39°F , 4°C
Wind Chill: 35°F , 2°C
Dew Point: 9°F , -13°C
Humidity: 28%
Barometer: 30.01 inHg , 1016.3 hPa
Clouds: Clear
Visibility: 10 miles , 16 km
2017/12/13 15:53 KFAY 131553Z VRB05KT 10SM CLR 04/M13 A3001 RMK AO2 SLP159 T00391128
 
KOAJ - Jacksonville, North Carolina, USA
Distance from station: NE 80mi, 129km
Updated: 12/13/2017 10:56am
Clear
Clear
 Wind from WNW
Wind: WNW 12 mph , 19 km/h, Gust: 18 mph , 30 km/h
Temperature: 39°F , 4°C
Wind Chill: 32°F , 0°C
Dew Point: 9°F , -13°C
Humidity: 28%
Barometer: 30.00 inHg , 1015.9 hPa
Clouds: Clear
Visibility: 10 miles , 16 km
2017/12/13 15:56 KOAJ 131556Z AUTO 30010G16KT 10SM CLR 04/M13 A3000 RMK AO2 SLP165 T00391133